sensor_id;sensor_type;location;lat;lon;timestamp;P1;durP1;ratioP1;P2;durP2;ratioP2
75356;SDS011;63946;51.986;5.930;2023-03-23T05:43:45;4.05;;;2.10;;
75356;SDS011;63946;51.986;5.930;2023-03-23T05:46:24;4.25;;;1.65;;
75356;SDS011;63946;51.986;5.930;2023-03-23T05:51:39;5.22;;;2.03;;
75356;SDS011;63946;51.986;5.930;2023-03-23T05:54:11;3.88;;;1.98;;
75356;SDS011;63946;51.986;5.930;2023-03-23T05:56:43;6.68;;;1.90;;
75356;SDS011;63946;51.986;5.930;2023-03-23T05:59:24;6.55;;;2.35;;
75356;SDS011;63946;51.986;5.930;2023-03-23T06:02:00;5.40;;;2.53;;
75356;SDS011;63946;51.986;5.930;2023-03-23T06:04:29;5.57;;;2.35;;
75356;SDS011;63946;51.986;5.930;2023-03-23T06:07:09;6.32;;;2.03;;
75356;SDS011;63946;51.986;5.930;2023-03-23T06:09:49;5.93;;;1.60;;
75356;SDS011;63946;51.986;5.930;2023-03-23T06:12:24;8.13;;;2.08;;
75356;SDS011;63946;51.986;5.930;2023-03-23T06:15:18;7.60;;;2.03;;
75356;SDS011;63946;51.986;5.930;2023-03-23T06:18:00;5.78;;;2.25;;
75356;SDS011;63946;51.986;5.930;2023-03-23T06:20:43;6.60;;;2.40;;
75356;SDS011;63946;51.986;5.930;2023-03-23T06:23:31;5.38;;;1.77;;
75356;SDS011;63946;51.986;5.930;2023-03-23T06:26:02;6.43;;;2.08;;
75356;SDS011;63946;51.986;5.930;2023-03-23T06:28:37;5.95;;;2.17;;
75356;SDS011;63946;51.986;5.930;2023-03-23T06:31:06;6.60;;;2.17;;
75356;SDS011;63946;51.986;5.930;2023-03-23T06:33:40;4.70;;;2.58;;
75356;SDS011;63946;51.986;5.930;2023-03-23T06:36:27;7.55;;;1.90;;
75356;SDS011;63946;51.986;5.930;2023-03-23T06:39:12;6.07;;;2.33;;
75356;SDS011;63946;51.986;5.930;2023-03-23T06:42:08;4.53;;;2.25;;
75356;SDS011;63946;51.986;5.930;2023-03-23T06:44:46;6.45;;;2.08;;
75356;SDS011;63946;51.986;5.930;2023-03-23T06:47:24;4.07;;;1.98;;
75356;SDS011;63946;51.986;5.930;2023-03-23T06:49:53;6.50;;;2.25;;
75356;SDS011;63946;51.986;5.930;2023-03-23T06:52:29;3.55;;;1.83;;
75356;SDS011;63946;51.986;5.930;2023-03-23T06:54:59;4.80;;;1.67;;
75356;SDS011;63946;51.986;5.930;2023-03-23T06:57:35;5.72;;;2.00;;
75356;SDS011;63946;51.986;5.930;2023-03-23T07:00:06;4.57;;;1.83;;
75356;SDS011;63946;51.986;5.930;2023-03-23T07:02:41;7.50;;;1.90;;
75356;SDS011;63946;51.986;5.930;2023-03-23T07:05:13;3.90;;;2.08;;
75356;SDS011;63946;51.986;5.930;2023-03-23T07:07:46;5.85;;;1.95;;
75356;SDS011;63946;51.986;5.930;2023-03-23T07:10:38;7.93;;;2.13;;
75356;SDS011;63946;51.986;5.930;2023-03-23T07:13:09;6.63;;;2.58;;
75356;SDS011;63946;51.986;5.930;2023-03-23T07:15:46;6.03;;;1.80;;
75356;SDS011;63946;51.986;5.930;2023-03-23T07:18:19;4.53;;;2.50;;
75356;SDS011;63946;51.986;5.930;2023-03-23T07:20:51;3.85;;;1.55;;
75356;SDS011;63946;51.986;5.930;2023-03-23T07:23:28;6.15;;;2.15;;
75356;SDS011;63946;51.986;5.930;2023-03-23T07:26:03;6.00;;;2.15;;
75356;SDS011;63946;51.986;5.930;2023-03-23T07:28:38;10.55;;;2.00;;
75356;SDS011;63946;51.986;5.930;2023-03-23T07:31:19;6.38;;;1.98;;
75356;SDS011;63946;51.986;5.930;2023-03-23T07:33:48;9.20;;;2.42;;
75356;SDS011;63946;51.986;5.930;2023-03-23T07:36:18;3.13;;;1.85;;
75356;SDS011;63946;51.986;5.930;2023-03-23T07:38:46;13.15;;;2.42;;
75356;SDS011;63946;51.986;5.930;2023-03-23T07:41:16;7.40;;;2.00;;
75356;SDS011;63946;51.986;5.930;2023-03-23T07:43:46;6.75;;;1.65;;
75356;SDS011;63946;51.986;5.930;2023-03-23T07:46:30;4.65;;;1.80;;
75356;SDS011;63946;51.986;5.930;2023-03-23T07:49:09;5.93;;;1.73;;
75356;SDS011;63946;51.986;5.930;2023-03-23T07:51:44;5.30;;;2.28;;
75356;SDS011;63946;51.986;5.930;2023-03-23T07:57:10;5.18;;;1.73;;
75356;SDS011;63946;51.986;5.930;2023-03-23T07:59:42;5.22;;;2.30;;
75356;SDS011;63946;51.986;5.930;2023-03-23T08:02:12;6.85;;;1.50;;
75356;SDS011;63946;51.986;5.930;2023-03-23T08:04:54;5.00;;;1.75;;
75356;SDS011;63946;51.986;5.930;2023-03-23T08:07:44;5.10;;;1.65;;
75356;SDS011;63946;51.986;5.930;2023-03-23T08:10:25;3.20;;;1.48;;
75356;SDS011;63946;51.986;5.930;2023-03-23T08:13:09;5.72;;;2.00;;
75356;SDS011;63946;51.986;5.930;2023-03-23T08:15:50;7.25;;;2.55;;
75356;SDS011;63946;51.986;5.930;2023-03-23T08:18:39;3.45;;;1.42;;
75356;SDS011;63946;51.986;5.930;2023-03-23T08:21:43;5.10;;;2.08;;
75356;SDS011;63946;51.986;5.930;2023-03-23T08:24:31;5.85;;;2.10;;
75356;SDS011;63946;51.986;5.930;2023-03-23T08:27:23;7.85;;;2.47;;
75356;SDS011;63946;51.986;5.930;2023-03-23T08:30:33;6.32;;;2.17;;
75356;SDS011;63946;51.986;5.930;2023-03-23T08:33:29;5.95;;;1.83;;
75356;SDS011;63946;51.986;5.930;2023-03-23T08:36:17;5.57;;;1.70;;
75356;SDS011;63946;51.986;5.930;2023-03-23T08:39:01;5.18;;;1.65;;
75356;SDS011;63946;51.986;5.930;2023-03-23T08:41:36;6.18;;;2.15;;
75356;SDS011;63946;51.986;5.930;2023-03-23T08:44:21;4.55;;;1.75;;
75356;SDS011;63946;51.986;5.930;2023-03-23T08:47:19;6.47;;;2.38;;
75356;SDS011;63946;51.986;5.930;2023-03-23T08:50:27;4.10;;;1.70;;
75356;SDS011;63946;51.986;5.930;2023-03-23T08:53:09;3.38;;;1.55;;
75356;SDS011;63946;51.986;5.930;2023-03-23T08:55:48;4.10;;;1.42;;
75356;SDS011;63946;51.986;5.930;2023-03-23T08:58:41;7.63;;;1.95;;
75356;SDS011;63946;51.986;5.930;2023-03-23T09:01:30;4.75;;;1.70;;
75356;SDS011;63946;51.986;5.930;2023-03-23T09:04:09;4.63;;;1.83;;
75356;SDS011;63946;51.986;5.930;2023-03-23T09:07:15;7.20;;;1.77;;
75356;SDS011;63946;51.986;5.930;2023-03-23T09:09:46;3.92;;;1.58;;
75356;SDS011;63946;51.986;5.930;2023-03-23T09:12:15;4.57;;;1.70;;
75356;SDS011;63946;51.986;5.930;2023-03-23T09:14:44;4.45;;;1.67;;
75356;SDS011;63946;51.986;5.930;2023-03-23T09:17:14;4.55;;;2.05;;
75356;SDS011;63946;51.986;5.930;2023-03-23T09:19:43;2.67;;;1.73;;
75356;SDS011;63946;51.986;5.930;2023-03-23T09:22:12;4.00;;;1.98;;
75356;SDS011;63946;51.986;5.930;2023-03-23T09:24:45;1.98;;;1.10;;
75356;SDS011;63946;51.986;5.930;2023-03-23T09:27:14;3.92;;;1.50;;
75356;SDS011;63946;51.986;5.930;2023-03-23T09:29:43;5.85;;;1.60;;
75356;SDS011;63946;51.986;5.930;2023-03-23T09:32:14;2.83;;;1.30;;
75356;SDS011;63946;51.986;5.930;2023-03-23T09:34:45;3.13;;;1.35;;
75356;SDS011;63946;51.986;5.930;2023-03-23T09:37:20;4.80;;;1.35;;
75356;SDS011;63946;51.986;5.930;2023-03-23T09:39:49;5.80;;;1.92;;
75356;SDS011;63946;51.986;5.930;2023-03-23T09:50:32;4.97;;;2.33;;
75356;SDS011;63946;51.986;5.930;2023-03-23T09:55:52;4.97;;;1.42;;
75356;SDS011;63946;51.986;5.930;2023-03-23T09:58:30;8.43;;;2.00;;
75356;SDS011;63946;51.986;5.930;2023-03-23T10:03:55;6.45;;;1.80;;
75356;SDS011;63946;51.986;5.930;2023-03-23T10:06:34;4.60;;;1.88;;
75356;SDS011;63946;51.986;5.930;2023-03-23T10:09:05;4.82;;;1.73;;
75356;SDS011;63946;51.986;5.930;2023-03-23T10:17:31;5.32;;;1.92;;
75356;SDS011;63946;51.986;5.930;2023-03-23T10:25:50;7.45;;;2.30;;
75356;SDS011;63946;51.986;5.930;2023-03-23T10:28:42;8.35;;;2.28;;
75356;SDS011;63946;51.986;5.930;2023-03-23T10:31:15;6.00;;;1.90;;
75356;SDS011;63946;51.986;5.930;2023-03-23T10:33:48;5.88;;;2.20;;
75356;SDS011;63946;51.986;5.930;2023-03-23T10:36:37;10.18;;;2.50;;
75356;SDS011;63946;51.986;5.930;2023-03-23T10:39:20;5.85;;;2.00;;
75356;SDS011;63946;51.986;5.930;2023-03-23T10:41:53;9.15;;;2.60;;
75356;SDS011;63946;51.986;5.930;2023-03-23T10:44:31;8.82;;;2.75;;
75356;SDS011;63946;51.986;5.930;2023-03-23T10:47:02;6.18;;;2.20;;
75356;SDS011;63946;51.986;5.930;2023-03-23T10:55:15;6.97;;;2.20;;
75356;SDS011;63946;51.986;5.930;2023-03-23T10:58:04;10.52;;;3.03;;
75356;SDS011;63946;51.986;5.930;2023-03-23T11:00:42;8.77;;;2.40;;
75356;SDS011;63946;51.986;5.930;2023-03-23T11:05:56;9.30;;;1.90;;
75356;SDS011;63946;51.986;5.930;2023-03-23T11:08:30;9.30;;;2.85;;
75356;SDS011;63946;51.986;5.930;2023-03-23T11:13:46;9.05;;;3.00;;
75356;SDS011;63946;51.986;5.930;2023-03-23T11:16:30;5.25;;;2.13;;
75356;SDS011;63946;51.986;5.930;2023-03-23T11:19:13;6.28;;;2.20;;
75356;SDS011;63946;51.986;5.930;2023-03-23T11:21:47;6.50;;;2.58;;
75356;SDS011;63946;51.986;5.930;2023-03-23T11:24:25;8.30;;;2.70;;
75356;SDS011;63946;51.986;5.930;2023-03-23T11:26:55;7.78;;;2.65;;
75356;SDS011;63946;51.986;5.930;2023-03-23T11:29:32;5.07;;;2.20;;
75356;SDS011;63946;51.986;5.930;2023-03-23T11:32:06;6.68;;;2.80;;
75356;SDS011;63946;51.986;5.930;2023-03-23T11:34:45;7.30;;;2.80;;
75356;SDS011;63946;51.986;5.930;2023-03-23T11:45:47;6.45;;;2.20;;
75356;SDS011;63946;51.986;5.930;2023-03-23T11:57:01;5.68;;;2.33;;
75356;SDS011;63946;51.986;5.930;2023-03-23T11:59:32;10.02;;;2.35;;
75356;SDS011;63946;51.986;5.930;2023-03-23T12:05:41;5.88;;;2.55;;
75356;SDS011;63946;51.986;5.930;2023-03-23T12:19:45;4.45;;;2.25;;
75356;SDS011;63946;51.986;5.930;2023-03-23T12:26:24;7.50;;;3.13;;
75356;SDS011;63946;51.986;5.930;2023-03-23T12:51:55;7.53;;;2.47;;
75356;SDS011;63946;51.986;5.930;2023-03-23T12:54:58;6.95;;;2.28;;
75356;SDS011;63946;51.986;5.930;2023-03-23T12:57:39;7.80;;;2.05;;
75356;SDS011;63946;51.986;5.930;2023-03-23T13:03:07;4.80;;;1.95;;
75356;SDS011;63946;51.986;5.930;2023-03-23T13:05:50;11.27;;;2.40;;
75356;SDS011;63946;51.986;5.930;2023-03-23T13:08:31;8.10;;;2.85;;
75356;SDS011;63946;51.986;5.930;2023-03-23T13:11:08;4.22;;;2.00;;
75356;SDS011;63946;51.986;5.930;2023-03-23T13:22:56;7.07;;;2.28;;
75356;SDS011;63946;51.986;5.930;2023-03-23T13:28:27;4.65;;;2.40;;
75356;SDS011;63946;51.986;5.930;2023-03-23T13:31:00;7.03;;;2.05;;
75356;SDS011;63946;51.986;5.930;2023-03-23T13:33:45;3.88;;;1.80;;
75356;SDS011;63946;51.986;5.930;2023-03-23T13:36:25;5.93;;;2.17;;
75356;SDS011;63946;51.986;5.930;2023-03-23T13:39:01;6.40;;;1.88;;
75356;SDS011;63946;51.986;5.930;2023-03-23T13:41:33;3.70;;;2.00;;
75356;SDS011;63946;51.986;5.930;2023-03-23T13:44:24;5.85;;;2.53;;
75356;SDS011;63946;51.986;5.930;2023-03-23T13:46:55;3.47;;;1.60;;
75356;SDS011;63946;51.986;5.930;2023-03-23T13:49:26;5.90;;;2.33;;
75356;SDS011;63946;51.986;5.930;2023-03-23T13:52:02;3.05;;;1.58;;
75356;SDS011;63946;51.986;5.930;2023-03-23T13:55:12;5.20;;;1.83;;
75356;SDS011;63946;51.986;5.930;2023-03-23T14:03:25;2.80;;;1.75;;
75356;SDS011;63946;51.986;5.930;2023-03-23T14:16:42;4.82;;;2.38;;
75356;SDS011;63946;51.986;5.930;2023-03-23T14:22:04;3.55;;;2.05;;
75356;SDS011;63946;51.986;5.930;2023-03-23T14:24:58;3.38;;;2.00;;
75356;SDS011;63946;51.986;5.930;2023-03-23T14:27:50;5.18;;;2.28;;
75356;SDS011;63946;51.986;5.930;2023-03-23T14:30:21;6.25;;;2.50;;
75356;SDS011;63946;51.986;5.930;2023-03-23T14:32:51;6.13;;;2.65;;
75356;SDS011;63946;51.986;5.930;2023-03-23T14:38:04;4.53;;;2.35;;
75356;SDS011;63946;51.986;5.930;2023-03-23T14:40:39;4.53;;;2.75;;
75356;SDS011;63946;51.986;5.930;2023-03-23T14:43:12;7.55;;;2.75;;
75356;SDS011;63946;51.986;5.930;2023-03-23T14:45:52;5.03;;;2.58;;
75356;SDS011;63946;51.986;5.930;2023-03-23T14:48:27;6.32;;;2.92;;
75356;SDS011;63946;51.986;5.930;2023-03-23T14:51:03;7.40;;;2.13;;
75356;SDS011;63946;51.986;5.930;2023-03-23T14:56:33;6.82;;;2.75;;
75356;SDS011;63946;51.986;5.930;2023-03-23T14:59:13;3.58;;;2.25;;
75356;SDS011;63946;51.986;5.930;2023-03-23T15:01:45;6.15;;;2.25;;
75356;SDS011;63946;51.986;5.930;2023-03-23T15:04:23;6.53;;;2.80;;
75356;SDS011;63946;51.986;5.930;2023-03-23T15:07:02;8.75;;;2.42;;
75356;SDS011;63946;51.986;5.930;2023-03-23T15:09:42;5.15;;;1.70;;
75356;SDS011;63946;51.986;5.930;2023-03-23T15:12:37;4.63;;;1.75;;
75356;SDS011;63946;51.986;5.930;2023-03-23T15:15:24;6.05;;;2.38;;
75356;SDS011;63946;51.986;5.930;2023-03-23T15:18:02;5.47;;;1.92;;
75356;SDS011;63946;51.986;5.930;2023-03-23T15:20:55;5.32;;;1.90;;
75356;SDS011;63946;51.986;5.930;2023-03-23T15:23:35;7.65;;;2.05;;
75356;SDS011;63946;51.986;5.930;2023-03-23T15:26:24;4.28;;;1.73;;
75356;SDS011;63946;51.986;5.930;2023-03-23T15:29:15;5.07;;;2.13;;
75356;SDS011;63946;51.986;5.930;2023-03-23T15:31:53;4.40;;;2.10;;
75356;SDS011;63946;51.986;5.930;2023-03-23T15:34:35;7.65;;;2.75;;
75356;SDS011;63946;51.986;5.930;2023-03-23T15:39:55;6.95;;;1.90;;
75356;SDS011;63946;51.986;5.930;2023-03-23T15:45:51;4.05;;;1.67;;
75356;SDS011;63946;51.986;5.930;2023-03-23T15:51:58;5.85;;;1.70;;
75356;SDS011;63946;51.986;5.930;2023-03-23T15:54:38;3.90;;;1.60;;
75356;SDS011;63946;51.986;5.930;2023-03-23T15:57:20;5.95;;;2.45;;
75356;SDS011;63946;51.986;5.930;2023-03-23T15:59:54;9.52;;;2.00;;
75356;SDS011;63946;51.986;5.930;2023-03-23T16:02:40;5.30;;;2.38;;
75356;SDS011;63946;51.986;5.930;2023-03-23T16:05:10;8.02;;;2.20;;
75356;SDS011;63946;51.986;5.930;2023-03-23T16:07:40;5.72;;;2.65;;
75356;SDS011;63946;51.986;5.930;2023-03-23T16:10:26;7.85;;;3.05;;
75356;SDS011;63946;51.986;5.930;2023-03-23T16:13:01;6.32;;;2.58;;
75356;SDS011;63946;51.986;5.930;2023-03-23T16:15:34;4.95;;;2.42;;
75356;SDS011;63946;51.986;5.930;2023-03-23T16:18:05;4.93;;;2.10;;
75356;SDS011;63946;51.986;5.930;2023-03-23T16:20:37;6.25;;;2.85;;
75356;SDS011;63946;51.986;5.930;2023-03-23T16:23:06;5.38;;;2.30;;
75356;SDS011;63946;51.986;5.930;2023-03-23T16:25:35;3.88;;;1.90;;
75356;SDS011;63946;51.986;5.930;2023-03-23T16:28:07;7.00;;;1.95;;
75356;SDS011;63946;51.986;5.930;2023-03-23T16:30:45;6.57;;;2.42;;
75356;SDS011;63946;51.986;5.930;2023-03-23T16:33:15;3.92;;;1.80;;
75356;SDS011;63946;51.986;5.930;2023-03-23T16:35:43;4.90;;;1.90;;
75356;SDS011;63946;51.986;5.930;2023-03-23T16:38:16;6.57;;;1.95;;
75356;SDS011;63946;51.986;5.930;2023-03-23T16:40:46;7.50;;;1.75;;
75356;SDS011;63946;51.986;5.930;2023-03-23T16:43:15;6.00;;;2.35;;
75356;SDS011;63946;51.986;5.930;2023-03-23T16:45:47;8.45;;;1.95;;
75356;SDS011;63946;51.986;5.930;2023-03-23T16:48:16;6.63;;;2.00;;
75356;SDS011;63946;51.986;5.930;2023-03-23T16:50:45;4.05;;;1.63;;
75356;SDS011;63946;51.986;5.930;2023-03-23T16:53:14;7.05;;;1.70;;
75356;SDS011;63946;51.986;5.930;2023-03-23T16:55:52;6.93;;;1.83;;
75356;SDS011;63946;51.986;5.930;2023-03-23T16:58:22;5.45;;;1.85;;
75356;SDS011;63946;51.986;5.930;2023-03-23T17:00:51;4.03;;;1.80;;
75356;SDS011;63946;51.986;5.930;2023-03-23T17:03:20;3.47;;;1.77;;
75356;SDS011;63946;51.986;5.930;2023-03-23T17:05:49;8.52;;;2.40;;
75356;SDS011;63946;51.986;5.930;2023-03-23T17:08:19;7.07;;;2.63;;
75356;SDS011;63946;51.986;5.930;2023-03-23T17:10:56;6.47;;;2.47;;
75356;SDS011;63946;51.986;5.930;2023-03-23T17:13:35;4.90;;;1.83;;
75356;SDS011;63946;51.986;5.930;2023-03-23T17:16:04;6.65;;;1.98;;
75356;SDS011;63946;51.986;5.930;2023-03-23T17:18:33;4.50;;;2.10;;
75356;SDS011;63946;51.986;5.930;2023-03-23T17:21:02;6.75;;;1.70;;
75356;SDS011;63946;51.986;5.930;2023-03-23T17:23:34;5.10;;;2.00;;
75356;SDS011;63946;51.986;5.930;2023-03-23T17:26:03;4.15;;;1.77;;
75356;SDS011;63946;51.986;5.930;2023-03-23T17:28:32;7.95;;;2.30;;
75356;SDS011;63946;51.986;5.930;2023-03-23T17:31:00;6.15;;;2.40;;
75356;SDS011;63946;51.986;5.930;2023-03-23T17:33:31;7.40;;;1.90;;
75356;SDS011;63946;51.986;5.930;2023-03-23T17:36:00;6.47;;;2.28;;
75356;SDS011;63946;51.986;5.930;2023-03-23T17:38:28;4.72;;;1.85;;
75356;SDS011;63946;51.986;5.930;2023-03-23T17:40:57;5.88;;;2.63;;
75356;SDS011;63946;51.986;5.930;2023-03-23T17:43:30;6.43;;;2.47;;
75356;SDS011;63946;51.986;5.930;2023-03-23T17:46:00;7.32;;;2.42;;
75356;SDS011;63946;51.986;5.930;2023-03-23T17:48:29;5.68;;;2.70;;
75356;SDS011;63946;51.986;5.930;2023-03-23T17:51:06;6.30;;;2.22;;
75356;SDS011;63946;51.986;5.930;2023-03-23T17:53:43;6.05;;;2.35;;
75356;SDS011;63946;51.986;5.930;2023-03-23T17:56:16;8.50;;;2.38;;
75356;SDS011;63946;51.986;5.930;2023-03-23T17:58:45;6.95;;;2.42;;
75356;SDS011;63946;51.986;5.930;2023-03-23T18:01:16;6.22;;;2.03;;
75356;SDS011;63946;51.986;5.930;2023-03-23T18:03:49;5.93;;;2.22;;
75356;SDS011;63946;51.986;5.930;2023-03-23T18:06:21;5.65;;;2.50;;
75356;SDS011;63946;51.986;5.930;2023-03-23T18:08:50;5.53;;;2.90;;
75356;SDS011;63946;51.986;5.930;2023-03-23T18:11:19;5.60;;;2.65;;
75356;SDS011;63946;51.986;5.930;2023-03-23T18:13:48;10.40;;;2.70;;
75356;SDS011;63946;51.986;5.930;2023-03-23T18:16:21;7.03;;;2.63;;
75356;SDS011;63946;51.986;5.930;2023-03-23T18:18:50;7.95;;;2.63;;
75356;SDS011;63946;51.986;5.930;2023-03-23T18:21:21;5.38;;;2.90;;
75356;SDS011;63946;51.986;5.930;2023-03-23T18:23:53;6.45;;;2.85;;
75356;SDS011;63946;51.986;5.930;2023-03-23T18:26:27;5.75;;;2.75;;
75356;SDS011;63946;51.986;5.930;2023-03-23T18:28:58;5.93;;;2.38;;
75356;SDS011;63946;51.986;5.930;2023-03-23T18:31:29;6.05;;;2.70;;
75356;SDS011;63946;51.986;5.930;2023-03-23T18:33:58;7.07;;;2.90;;
75356;SDS011;63946;51.986;5.930;2023-03-23T18:36:27;9.32;;;3.17;;
75356;SDS011;63946;51.986;5.930;2023-03-23T18:38:56;6.60;;;3.00;;
75356;SDS011;63946;51.986;5.930;2023-03-23T18:41:29;8.40;;;2.95;;
75356;SDS011;63946;51.986;5.930;2023-03-23T18:43:57;4.30;;;2.83;;
75356;SDS011;63946;51.986;5.930;2023-03-23T18:46:26;4.90;;;2.80;;
75356;SDS011;63946;51.986;5.930;2023-03-23T18:48:55;9.50;;;3.50;;
75356;SDS011;63946;51.986;5.930;2023-03-23T18:51:24;7.68;;;2.50;;
75356;SDS011;63946;51.986;5.930;2023-03-23T18:53:59;6.40;;;2.90;;
75356;SDS011;63946;51.986;5.930;2023-03-23T18:56:31;8.20;;;2.40;;
75356;SDS011;63946;51.986;5.930;2023-03-23T18:59:01;8.98;;;4.15;;
75356;SDS011;63946;51.986;5.930;2023-03-23T19:01:31;7.22;;;2.97;;
75356;SDS011;63946;51.986;5.930;2023-03-23T19:04:00;6.35;;;2.63;;
75356;SDS011;63946;51.986;5.930;2023-03-23T19:06:32;6.10;;;3.03;;
75356;SDS011;63946;51.986;5.930;2023-03-23T19:09:13;7.38;;;2.53;;
75356;SDS011;63946;51.986;5.930;2023-03-23T19:11:45;6.88;;;2.83;;
75356;SDS011;63946;51.986;5.930;2023-03-23T19:14:15;6.18;;;3.33;;
75356;SDS011;63946;51.986;5.930;2023-03-23T19:16:52;7.68;;;2.58;;
75356;SDS011;63946;51.986;5.930;2023-03-23T19:19:21;7.57;;;2.92;;
75356;SDS011;63946;51.986;5.930;2023-03-23T19:21:51;7.57;;;2.80;;
75356;SDS011;63946;51.986;5.930;2023-03-23T19:24:22;6.72;;;3.05;;
75356;SDS011;63946;51.986;5.930;2023-03-23T19:26:53;6.32;;;2.78;;
75356;SDS011;63946;51.986;5.930;2023-03-23T19:29:30;9.57;;;2.58;;
75356;SDS011;63946;51.986;5.930;2023-03-23T19:31:59;8.73;;;3.38;;
75356;SDS011;63946;51.986;5.930;2023-03-23T19:34:28;9.45;;;2.92;;
75356;SDS011;63946;51.986;5.930;2023-03-23T19:36:58;6.35;;;2.85;;
75356;SDS011;63946;51.986;5.930;2023-03-23T19:39:28;7.68;;;2.97;;
75356;SDS011;63946;51.986;5.930;2023-03-23T19:41:57;7.63;;;2.08;;
75356;SDS011;63946;51.986;5.930;2023-03-23T19:44:30;9.40;;;3.58;;
75356;SDS011;63946;51.986;5.930;2023-03-23T19:46:59;6.63;;;2.80;;
75356;SDS011;63946;51.986;5.930;2023-03-23T19:49:28;7.07;;;2.90;;
75356;SDS011;63946;51.986;5.930;2023-03-23T19:51:57;6.70;;;2.33;;
75356;SDS011;63946;51.986;5.930;2023-03-23T19:54:31;4.57;;;2.80;;
75356;SDS011;63946;51.986;5.930;2023-03-23T19:57:03;6.00;;;3.50;;
75356;SDS011;63946;51.986;5.930;2023-03-23T19:59:32;5.40;;;2.65;;
75356;SDS011;63946;51.986;5.930;2023-03-23T20:02:04;6.82;;;3.10;;
75356;SDS011;63946;51.986;5.930;2023-03-23T20:04:33;8.05;;;3.47;;
75356;SDS011;63946;51.986;5.930;2023-03-23T20:07:05;5.72;;;2.95;;
75356;SDS011;63946;51.986;5.930;2023-03-23T20:09:34;7.45;;;2.88;;
75356;SDS011;63946;51.986;5.930;2023-03-23T20:12:04;10.57;;;3.72;;
75356;SDS011;63946;51.986;5.930;2023-03-23T20:14:33;5.43;;;3.03;;
75356;SDS011;63946;51.986;5.930;2023-03-23T20:17:09;8.77;;;3.05;;
75356;SDS011;63946;51.986;5.930;2023-03-23T20:19:39;10.90;;;4.38;;
75356;SDS011;63946;51.986;5.930;2023-03-23T20:22:08;6.45;;;3.20;;
75356;SDS011;63946;51.986;5.930;2023-03-23T20:24:36;4.95;;;2.90;;
75356;SDS011;63946;51.986;5.930;2023-03-23T20:27:14;9.52;;;2.92;;
75356;SDS011;63946;51.986;5.930;2023-03-23T20:29:44;10.48;;;3.75;;
75356;SDS011;63946;51.986;5.930;2023-03-23T20:32:14;8.73;;;3.10;;
75356;SDS011;63946;51.986;5.930;2023-03-23T20:34:43;5.13;;;2.38;;
75356;SDS011;63946;51.986;5.930;2023-03-23T20:37:14;5.55;;;2.83;;
75356;SDS011;63946;51.986;5.930;2023-03-23T20:39:45;7.32;;;3.22;;
75356;SDS011;63946;51.986;5.930;2023-03-23T20:42:17;7.85;;;3.00;;
75356;SDS011;63946;51.986;5.930;2023-03-23T20:44:54;7.90;;;3.25;;
75356;SDS011;63946;51.986;5.930;2023-03-23T20:47:23;10.35;;;3.25;;
75356;SDS011;63946;51.986;5.930;2023-03-23T20:49:55;6.45;;;3.13;;
75356;SDS011;63946;51.986;5.930;2023-03-23T20:52:25;5.30;;;2.65;;
75356;SDS011;63946;51.986;5.930;2023-03-23T20:54:55;5.38;;;2.60;;
75356;SDS011;63946;51.986;5.930;2023-03-23T20:57:27;7.63;;;2.60;;
75356;SDS011;63946;51.986;5.930;2023-03-23T20:59:56;10.13;;;3.00;;
75356;SDS011;63946;51.986;5.930;2023-03-23T21:02:25;6.70;;;3.17;;
75356;SDS011;63946;51.986;5.930;2023-03-23T21:04:54;7.72;;;2.97;;
75356;SDS011;63946;51.986;5.930;2023-03-23T21:07:23;6.97;;;2.80;;
75356;SDS011;63946;51.986;5.930;2023-03-23T21:09:52;7.15;;;3.13;;
75356;SDS011;63946;51.986;5.930;2023-03-23T21:12:21;7.85;;;3.55;;
75356;SDS011;63946;51.986;5.930;2023-03-23T21:14:50;8.98;;;2.85;;
75356;SDS011;63946;51.986;5.930;2023-03-23T21:17:19;8.88;;;3.58;;
75356;SDS011;63946;51.986;5.930;2023-03-23T21:19:48;6.05;;;3.35;;
75356;SDS011;63946;51.986;5.930;2023-03-23T21:22:17;7.28;;;3.47;;
75356;SDS011;63946;51.986;5.930;2023-03-23T21:24:46;4.90;;;2.33;;
75356;SDS011;63946;51.986;5.930;2023-03-23T21:27:23;5.15;;;2.78;;
75356;SDS011;63946;51.986;5.930;2023-03-23T21:29:57;7.65;;;3.08;;
75356;SDS011;63946;51.986;5.930;2023-03-23T21:32:27;7.32;;;2.47;;
75356;SDS011;63946;51.986;5.930;2023-03-23T21:35:12;5.32;;;2.75;;
75356;SDS011;63946;51.986;5.930;2023-03-23T21:37:41;7.38;;;3.17;;
75356;SDS011;63946;51.986;5.930;2023-03-23T21:40:11;7.25;;;3.20;;
75356;SDS011;63946;51.986;5.930;2023-03-23T21:42:42;6.40;;;2.97;;
75356;SDS011;63946;51.986;5.930;2023-03-23T21:45:19;6.93;;;2.80;;
75356;SDS011;63946;51.986;5.930;2023-03-23T21:47:50;7.55;;;2.78;;
75356;SDS011;63946;51.986;5.930;2023-03-23T21:50:21;7.07;;;2.78;;
